createdAt,value
2018-12-21T00:01:08.324Z,2.10
2018-12-21T00:03:37.790Z,2.00
2018-12-21T00:06:07.533Z,2.00
2018-12-21T00:08:37.292Z,2.00
2018-12-21T00:11:07.577Z,2.00
2018-12-21T00:13:37.109Z,2.00
2018-12-21T00:16:07.559Z,2.00
2018-12-21T00:18:36.930Z,2.00
2018-12-21T00:21:07.474Z,2.00
2018-12-21T00:23:36.826Z,2.00
2018-12-21T00:26:06.612Z,2.00
2018-12-21T00:28:36.108Z,2.10
2018-12-21T00:31:11.632Z,2.10
2018-12-21T00:33:46.865Z,2.10
2018-12-21T00:36:22.050Z,2.10
2018-12-21T00:38:58.038Z,2.00
2018-12-21T00:41:27.579Z,2.00
2018-12-21T00:44:02.224Z,2.10
2018-12-21T00:46:35.070Z,2.00
2018-12-21T00:49:05.179Z,2.00
2018-12-21T00:51:36.259Z,2.00
2018-12-21T00:54:06.249Z,2.10
2018-12-21T00:56:35.708Z,2.00
2018-12-21T00:59:05.523Z,2.10
2018-12-21T01:01:35.131Z,2.10
2018-12-21T01:04:04.643Z,1.90
2018-12-21T01:06:34.716Z,2.00
2018-12-21T01:09:05.565Z,2.00
2018-12-21T01:11:35.279Z,2.00
2018-12-21T01:14:04.858Z,2.10
2018-12-21T01:16:34.402Z,2.10
2018-12-21T01:19:04.054Z,2.20
2018-12-21T01:21:38.749Z,2.20
2018-12-21T01:24:05.611Z,2.20
2018-12-21T01:26:36.551Z,2.10
2018-12-21T01:29:07.164Z,2.10
2018-12-21T01:31:36.642Z,2.10
2018-12-21T01:34:06.411Z,2.20
2018-12-21T01:36:36.135Z,2.20
2018-12-21T01:39:07.252Z,2.10
2018-12-21T01:41:36.605Z,2.10
2018-12-21T01:44:06.337Z,2.10
2018-12-21T01:46:35.772Z,2.10
2018-12-21T01:49:06.127Z,2.10
2018-12-21T01:51:35.859Z,2.10
2018-12-21T01:54:05.708Z,2.20
2018-12-21T01:56:35.345Z,2.20
2018-12-21T01:59:05.886Z,2.10
2018-12-21T02:01:35.674Z,2.20
2018-12-21T02:04:05.523Z,2.20
2018-12-21T02:06:35.668Z,2.20
2018-12-21T02:09:08.460Z,2.20
2018-12-21T02:11:38.574Z,2.30
2018-12-21T02:14:08.027Z,2.30
2018-12-21T02:16:38.187Z,2.40
2018-12-21T02:19:07.562Z,2.40
2018-12-21T02:21:37.525Z,2.30
2018-12-21T02:24:07.400Z,2.30
2018-12-21T02:26:39.746Z,2.30
2018-12-21T02:29:09.076Z,2.30
2018-12-21T02:31:39.198Z,2.30
2018-12-21T02:34:09.703Z,2.20
2018-12-21T02:36:39.405Z,2.20
2018-12-21T02:39:09.595Z,2.20
2018-12-21T02:41:39.034Z,2.10
2018-12-21T02:44:09.174Z,2.00
2018-12-21T02:46:38.663Z,2.00
2018-12-21T02:49:08.520Z,2.10
2018-12-21T02:51:38.067Z,2.10
2018-12-21T02:54:07.501Z,2.10
2018-12-21T02:56:36.966Z,2.10
2018-12-21T02:59:06.879Z,2.20
2018-12-21T03:01:36.234Z,2.10
2018-12-21T03:04:06.606Z,2.20
2018-12-21T03:06:36.430Z,2.10
2018-12-21T03:09:09.701Z,2.00
2018-12-21T03:11:39.498Z,2.10
2018-12-21T03:14:09.259Z,2.10
2018-12-21T03:16:41.711Z,2.20
2018-12-21T03:19:11.477Z,2.30
2018-12-21T03:21:41.398Z,2.20
2018-12-21T03:24:11.050Z,2.20
2018-12-21T03:26:41.349Z,2.20
2018-12-21T03:29:10.883Z,2.30
2018-12-21T03:31:40.943Z,2.30
2018-12-21T03:34:10.967Z,2.30
2018-12-21T03:36:40.342Z,2.20
2018-12-21T03:39:10.256Z,2.20
2018-12-21T03:41:39.871Z,2.30
2018-12-21T03:44:09.915Z,2.30
2018-12-21T03:46:39.381Z,2.40
2018-12-21T03:49:10.219Z,2.40
2018-12-21T03:51:40.754Z,2.30
2018-12-21T03:54:10.156Z,2.30
2018-12-21T03:56:39.631Z,2.20
2018-12-21T04:01:42.894Z,2.20
2018-12-21T04:04:14.431Z,2.30
2018-12-21T04:06:44.871Z,2.30
2018-12-21T04:09:15.499Z,2.40
2018-12-21T04:11:44.972Z,2.40
2018-12-21T04:14:14.831Z,2.20
2018-12-21T04:16:44.395Z,2.20
2018-12-21T04:19:14.176Z,2.20
2018-12-21T04:21:43.802Z,2.20
2018-12-21T04:24:13.223Z,2.10
2018-12-21T04:26:42.610Z,2.10
2018-12-21T04:29:12.644Z,2.10
2018-12-21T04:31:42.667Z,2.20
2018-12-21T04:34:12.338Z,2.20
2018-12-21T04:36:41.961Z,2.10
2018-12-21T04:39:12.002Z,2.10
2018-12-21T04:41:41.387Z,2.10
2018-12-21T04:44:13.750Z,2.20
2018-12-21T04:46:43.668Z,2.10
2018-12-21T04:49:13.076Z,2.20
2018-12-21T04:51:45.219Z,2.30
2018-12-21T04:56:43.711Z,2.30
2018-12-21T04:59:13.357Z,2.30
2018-12-21T05:01:43.498Z,2.30
2018-12-21T05:04:19.845Z,2.30
2018-12-21T05:06:45.717Z,2.30
2018-12-21T05:09:15.887Z,2.50
2018-12-21T05:11:45.259Z,2.40
2018-12-21T05:14:14.809Z,2.40
2018-12-21T05:16:44.251Z,2.30
2018-12-21T05:19:19.075Z,2.30
2018-12-21T05:21:48.683Z,2.20
2018-12-21T05:24:18.051Z,2.20
2018-12-21T05:26:47.697Z,2.10
2018-12-21T05:29:17.408Z,2.00
2018-12-21T05:31:52.250Z,2.00
2018-12-21T05:34:22.006Z,2.10
2018-12-21T05:36:51.702Z,2.20
2018-12-21T05:39:21.467Z,2.20
2018-12-21T05:41:53.037Z,2.10
2018-12-21T05:44:25.422Z,2.00
2018-12-21T05:46:57.003Z,2.00
2018-12-21T05:49:29.006Z,2.00
2018-12-21T05:52:00.850Z,2.00
2018-12-21T05:54:33.050Z,1.90
2018-12-21T05:57:03.197Z,1.90
2018-12-21T05:59:33.898Z,1.90
2018-12-21T06:02:05.504Z,1.80
2018-12-21T06:04:35.054Z,1.90
2018-12-21T06:07:05.511Z,1.80
2018-12-21T06:09:35.017Z,1.80
2018-12-21T06:12:04.677Z,1.90
2018-12-21T06:14:34.021Z,1.80
2018-12-21T06:17:03.646Z,1.90
2018-12-21T06:19:33.376Z,1.80
2018-12-21T06:22:04.117Z,1.80
2018-12-21T06:24:40.301Z,1.80
2018-12-21T06:27:12.523Z,1.70
2018-12-21T06:29:43.729Z,1.80
2018-12-21T06:32:15.532Z,1.80
2018-12-21T06:34:45.137Z,1.90
2018-12-21T06:37:14.570Z,1.90
2018-12-21T06:39:44.423Z,1.90
2018-12-21T06:42:14.490Z,1.90
2018-12-21T06:44:44.611Z,1.90
2018-12-21T06:47:14.689Z,1.80
2018-12-21T06:49:44.782Z,1.90
2018-12-21T06:52:14.458Z,1.90
2018-12-21T06:54:44.046Z,2.00
2018-12-21T06:57:13.508Z,1.90
2018-12-21T06:59:42.859Z,1.80
2018-12-21T07:02:12.828Z,1.80
2018-12-21T07:04:42.214Z,1.80
2018-12-21T07:07:11.746Z,1.70
2018-12-21T07:09:41.083Z,1.70
2018-12-21T07:12:10.160Z,1.70
2018-12-21T07:14:40.133Z,1.60
2018-12-21T07:17:09.782Z,1.60
2018-12-21T07:19:39.246Z,1.60
2018-12-21T07:22:09.961Z,1.60
2018-12-21T07:24:40.247Z,1.60
2018-12-21T07:27:09.645Z,1.60
2018-12-21T07:29:39.445Z,1.50
2018-12-21T07:32:08.811Z,1.60
2018-12-21T07:34:39.202Z,1.60
2018-12-21T07:37:08.678Z,1.60
2018-12-21T07:39:37.995Z,1.60
2018-12-21T07:42:07.426Z,1.60
2018-12-21T07:44:36.813Z,1.60
2018-12-21T07:47:06.169Z,1.60
2018-12-21T07:49:36.826Z,1.60
2018-12-21T07:52:06.544Z,1.60
2018-12-21T07:54:36.900Z,1.60
2018-12-21T07:57:08.011Z,1.60
2018-12-21T07:59:37.662Z,1.50
2018-12-21T08:02:08.923Z,1.40
2018-12-21T08:04:38.577Z,1.40
2018-12-21T08:07:09.511Z,1.40
2018-12-21T08:09:39.362Z,1.50
2018-12-21T08:12:09.426Z,1.50
2018-12-21T08:14:41.209Z,1.40
2018-12-21T08:17:11.749Z,1.50
2018-12-21T08:19:41.195Z,1.50
2018-12-21T08:22:11.024Z,1.50
2018-12-21T08:24:40.403Z,1.50
2018-12-21T08:27:11.210Z,1.50
2018-12-21T08:29:40.576Z,1.50
2018-12-21T08:32:10.347Z,1.50
2018-12-21T08:34:39.695Z,1.50
2018-12-21T08:37:09.030Z,1.50
2018-12-21T08:39:39.108Z,1.40
2018-12-21T08:42:08.468Z,1.40
2018-12-21T08:44:38.122Z,1.40
2018-12-21T08:47:07.851Z,1.40
2018-12-21T08:49:39.777Z,1.40
2018-12-21T08:52:09.730Z,1.30
2018-12-21T08:54:39.552Z,1.30
2018-12-21T08:57:09.356Z,1.30
2018-12-21T08:59:41.376Z,1.30
2018-12-21T09:02:11.850Z,1.30
2018-12-21T09:04:44.271Z,1.30
2018-12-21T09:07:14.192Z,1.20
2018-12-21T09:09:48.965Z,1.30
2018-12-21T09:12:18.389Z,1.30
2018-12-21T09:14:48.890Z,1.30
2018-12-21T09:17:18.763Z,1.30
2018-12-21T09:19:48.349Z,1.40
2018-12-21T09:22:17.984Z,1.40
2018-12-21T09:24:47.438Z,1.30
2018-12-21T09:27:16.834Z,1.40
2018-12-21T09:29:46.720Z,1.40
2018-12-21T09:32:16.122Z,1.40
2018-12-21T09:34:46.014Z,1.40
2018-12-21T09:37:16.264Z,1.30
2018-12-21T09:39:46.732Z,1.30
2018-12-21T09:42:16.226Z,1.40
2018-12-21T09:44:52.501Z,1.30
2018-12-21T09:47:18.400Z,1.40
2018-12-21T09:49:47.826Z,1.30
2018-12-21T09:52:19.594Z,1.40
2018-12-21T09:54:49.255Z,1.40
2018-12-21T09:57:18.614Z,1.40
2018-12-21T09:59:48.059Z,1.30
2018-12-21T10:02:17.514Z,1.30
2018-12-21T10:04:47.221Z,1.20
2018-12-21T10:07:16.739Z,1.20
2018-12-21T10:09:46.926Z,1.20
2018-12-21T10:12:16.626Z,1.20
2018-12-21T10:14:46.154Z,1.20
2018-12-21T10:17:15.874Z,1.20
2018-12-21T10:19:45.746Z,1.30
2018-12-21T10:22:15.478Z,1.20
2018-12-21T10:24:45.607Z,1.20
2018-12-21T10:27:15.819Z,1.20
2018-12-21T10:29:45.198Z,1.30
2018-12-21T10:32:16.845Z,1.20
2018-12-21T10:34:46.250Z,1.20
2018-12-21T10:37:16.744Z,1.20
2018-12-21T10:39:46.653Z,1.20
2018-12-21T10:42:15.993Z,1.10
2018-12-21T10:44:45.922Z,1.20
2018-12-21T10:47:15.365Z,1.10
2018-12-21T10:49:47.136Z,1.10
2018-12-21T10:52:18.490Z,1.00
2018-12-21T10:54:49.446Z,0.90
2018-12-21T10:57:21.814Z,1.00
2018-12-21T10:59:53.037Z,0.90
2018-12-21T11:02:23.123Z,1.00
2018-12-21T11:04:52.504Z,1.00
2018-12-21T11:07:24.226Z,1.00
2018-12-21T11:09:53.721Z,1.00
2018-12-21T11:12:24.597Z,1.00
2018-12-21T11:14:54.669Z,1.00
2018-12-21T11:17:24.192Z,0.90
2018-12-21T11:19:54.292Z,0.90
2018-12-21T11:22:23.709Z,1.00
2018-12-21T11:24:53.624Z,1.10
2018-12-21T11:27:23.853Z,1.00
2018-12-21T11:29:55.188Z,1.10
2018-12-21T11:32:24.842Z,1.00
2018-12-21T11:34:54.965Z,1.00
2018-12-21T11:37:24.974Z,1.00
2018-12-21T11:39:54.422Z,1.00
2018-12-21T11:42:24.202Z,1.00
2018-12-21T11:44:53.644Z,1.00
2018-12-21T11:47:23.345Z,0.90
2018-12-21T11:49:53.641Z,0.90
2018-12-21T11:52:23.021Z,0.90
2018-12-21T11:54:52.354Z,0.90
2018-12-21T11:57:21.957Z,0.90
2018-12-21T11:59:51.399Z,0.90
2018-12-21T12:02:20.824Z,0.90
2018-12-21T12:04:50.842Z,0.90
2018-12-21T12:07:20.270Z,0.80
2018-12-21T12:09:50.106Z,0.80
2018-12-21T12:12:19.520Z,0.80
2018-12-21T12:14:49.760Z,0.80
2018-12-21T12:17:19.555Z,0.90
2018-12-21T12:19:49.979Z,0.80
2018-12-21T12:22:19.784Z,0.80
2018-12-21T12:24:52.883Z,0.70
2018-12-21T12:27:21.246Z,0.70
2018-12-21T12:29:50.586Z,0.80
2018-12-21T12:32:21.174Z,0.90
2018-12-21T12:34:51.543Z,0.90
2018-12-21T12:37:20.885Z,0.90
2018-12-21T12:39:50.633Z,0.80
2018-12-21T12:42:20.470Z,0.80
2018-12-21T12:44:50.022Z,0.70
2018-12-21T12:47:19.411Z,0.80
2018-12-21T12:49:49.387Z,0.80
2018-12-21T12:52:19.203Z,0.80
2018-12-21T12:54:48.778Z,0.70
2018-12-21T12:57:18.766Z,0.70
2018-12-21T12:59:48.136Z,0.70
2018-12-21T13:02:18.618Z,0.60
2018-12-21T13:04:48.079Z,0.70
2018-12-21T13:07:18.256Z,0.70
2018-12-21T13:09:47.998Z,0.70
2018-12-21T13:12:17.350Z,0.70
2018-12-21T13:14:46.710Z,0.70
2018-12-21T13:17:16.904Z,0.80
2018-12-21T13:19:46.848Z,0.70
2018-12-21T13:22:17.031Z,0.70
2018-12-21T13:24:46.471Z,0.60
2018-12-21T13:27:16.482Z,0.60
2018-12-21T13:29:45.916Z,0.60
2018-12-21T13:32:15.333Z,0.60
2018-12-21T13:34:44.734Z,0.70
2018-12-21T13:37:14.264Z,0.70
2018-12-21T13:39:43.872Z,0.80
2018-12-21T13:42:14.626Z,0.60
2018-12-21T13:44:44.567Z,0.60
2018-12-21T13:47:13.946Z,0.50
2018-12-21T13:49:44.066Z,0.50
2018-12-21T13:52:13.494Z,0.50
2018-12-21T13:54:42.912Z,0.50
2018-12-21T13:57:12.297Z,0.50
2018-12-21T13:59:42.584Z,0.60
2018-12-21T14:02:12.135Z,0.50
2018-12-21T14:04:41.849Z,0.60
2018-12-21T14:07:11.655Z,0.60
2018-12-21T14:09:43.508Z,0.60
2018-12-21T14:12:13.006Z,0.50
2018-12-21T14:14:42.518Z,0.60
2018-12-21T14:17:13.986Z,0.60
2018-12-21T14:19:43.370Z,0.70
2018-12-21T14:22:12.851Z,0.70
2018-12-21T14:24:42.319Z,0.70
2018-12-21T14:27:11.670Z,0.80
2018-12-21T14:29:41.177Z,0.90
2018-12-21T14:32:11.941Z,0.90
2018-12-21T14:34:41.284Z,0.80
2018-12-21T14:37:10.653Z,0.80
2018-12-21T14:39:40.892Z,0.80
2018-12-21T14:42:10.338Z,0.80
2018-12-21T14:44:39.948Z,0.80
2018-12-21T14:47:09.423Z,0.80
2018-12-21T14:49:39.571Z,0.70
2018-12-21T14:52:09.197Z,0.70
2018-12-21T14:54:42.224Z,0.60
2018-12-21T14:57:11.745Z,0.70
2018-12-21T14:59:41.497Z,0.80
2018-12-21T15:02:11.421Z,0.80
2018-12-21T15:04:42.554Z,0.90
2018-12-21T15:07:12.030Z,0.80
2018-12-21T15:09:42.312Z,0.80
2018-12-21T15:12:11.879Z,0.80
2018-12-21T15:14:41.254Z,0.60
2018-12-21T15:17:10.673Z,0.60
2018-12-21T15:19:41.716Z,0.70
2018-12-21T15:22:11.169Z,0.70
2018-12-21T15:24:41.158Z,0.70
2018-12-21T15:27:10.626Z,0.70
2018-12-21T15:29:41.150Z,0.70
2018-12-21T15:32:11.231Z,0.60
2018-12-21T15:34:41.147Z,0.60
2018-12-21T15:37:11.112Z,0.60
2018-12-21T15:39:43.900Z,0.60
2018-12-21T15:42:13.406Z,0.70
2018-12-21T15:44:42.950Z,0.60
2018-12-21T15:47:12.992Z,0.60
2018-12-21T15:49:42.344Z,0.60
2018-12-21T15:52:12.257Z,0.60
2018-12-21T15:54:41.735Z,0.60
2018-12-21T15:57:11.161Z,0.60
2018-12-21T15:59:41.126Z,0.50
2018-12-21T16:02:10.755Z,0.50
2018-12-21T16:04:40.469Z,0.50
2018-12-21T16:07:09.856Z,0.50
2018-12-21T16:09:39.491Z,0.50
2018-12-21T16:12:08.962Z,0.50
2018-12-21T16:14:39.515Z,0.40
2018-12-21T16:17:09.442Z,0.40
2018-12-21T16:19:39.530Z,0.40
2018-12-21T16:22:10.932Z,0.40
2018-12-21T16:24:40.842Z,0.50
2018-12-21T16:27:10.206Z,0.50
2018-12-21T16:29:39.535Z,0.40
2018-12-21T16:32:08.891Z,0.50
2018-12-21T16:34:38.299Z,0.60
2018-12-21T16:37:07.690Z,0.50
2018-12-21T16:39:37.085Z,0.40
2018-12-21T16:42:06.588Z,0.40
2018-12-21T16:44:36.598Z,0.30
2018-12-21T16:47:06.781Z,0.30
2018-12-21T16:49:36.122Z,0.20
2018-12-21T16:52:05.560Z,0.20
2018-12-21T16:54:35.154Z,0.20
2018-12-21T16:57:05.242Z,0.30
2018-12-21T16:59:38.433Z,0.30
2018-12-21T17:02:08.070Z,0.40
2018-12-21T17:04:39.463Z,0.40
2018-12-21T17:07:09.022Z,0.30
2018-12-21T17:09:39.886Z,0.30
2018-12-21T17:12:09.339Z,0.20
2018-12-21T17:14:39.697Z,0.20
2018-12-21T17:17:09.256Z,0.20
2018-12-21T17:19:41.310Z,-0.10
2018-12-21T17:22:10.767Z,0.20
2018-12-21T17:24:40.266Z,0.20
2018-12-21T17:27:09.824Z,0.20
2018-12-21T17:29:40.077Z,0.10
2018-12-21T17:32:09.612Z,0.10
2018-12-21T17:34:39.804Z,0.00
2018-12-21T17:37:09.199Z,0.00
2018-12-21T17:39:39.581Z,0.10
2018-12-21T17:42:09.951Z,0.10
2018-12-21T17:44:40.300Z,0.10
2018-12-21T17:47:09.767Z,0.20
2018-12-21T17:49:42.394Z,0.20
2018-12-21T17:52:12.038Z,0.10
2018-12-21T17:54:41.458Z,0.10
2018-12-21T17:57:10.816Z,0.10
2018-12-21T17:59:40.253Z,0.00
2018-12-21T18:02:09.632Z,0.10
2018-12-21T18:04:39.930Z,0.10
2018-12-21T18:07:09.399Z,0.20
2018-12-21T18:09:40.054Z,0.20
2018-12-21T18:12:09.770Z,0.10
2018-12-21T18:14:39.933Z,0.10
2018-12-21T18:17:09.710Z,0.10
2018-12-21T18:19:40.068Z,0.20
2018-12-21T18:22:15.498Z,0.10
2018-12-21T18:24:47.762Z,0.10
2018-12-21T18:27:17.174Z,0.20
2018-12-21T18:29:47.051Z,0.30
2018-12-21T18:32:23.434Z,0.20
2018-12-21T18:34:52.830Z,0.20
2018-12-21T18:37:22.463Z,0.20
2018-12-21T18:39:57.144Z,0.20
2018-12-21T18:42:26.703Z,0.20
2018-12-21T18:44:56.146Z,0.20
2018-12-21T18:47:25.537Z,0.10
2018-12-21T18:49:55.028Z,0.20
2018-12-21T18:52:24.751Z,0.20
2018-12-21T18:54:54.183Z,0.20
2018-12-21T18:57:25.729Z,0.20
2018-12-21T18:59:55.271Z,0.20
2018-12-21T19:02:26.105Z,0.20
2018-12-21T19:04:55.595Z,0.30
2018-12-21T19:07:24.967Z,0.30
2018-12-21T19:09:54.534Z,0.20
2018-12-21T19:12:23.910Z,0.00
2018-12-21T19:14:53.835Z,0.00
2018-12-21T19:17:23.286Z,0.00
2018-12-21T19:19:52.678Z,0.00
2018-12-21T19:22:22.070Z,0.00
2018-12-21T19:24:51.871Z,0.10
2018-12-21T19:27:21.299Z,0.10
2018-12-21T19:29:51.077Z,0.10
2018-12-21T19:32:21.102Z,0.20
2018-12-21T19:34:50.518Z,0.10
2018-12-21T19:37:20.034Z,0.00
2018-12-21T19:39:50.910Z,0.00
2018-12-21T19:42:20.642Z,0.00
2018-12-21T19:44:50.248Z,-0.10
2018-12-21T19:47:19.948Z,-0.10
2018-12-21T19:49:49.803Z,0.00
2018-12-21T19:52:19.270Z,0.00
2018-12-21T19:54:55.468Z,0.00
2018-12-21T19:57:25.321Z,0.00
2018-12-21T19:59:54.854Z,0.00
2018-12-21T20:02:30.319Z,0.10
2018-12-21T20:05:00.308Z,0.10
2018-12-21T20:07:29.959Z,0.10
2018-12-21T20:09:59.781Z,0.10
2018-12-21T20:12:29.289Z,0.10
2018-12-21T20:14:58.736Z,0.10
2018-12-21T20:17:28.365Z,0.10
2018-12-21T20:19:57.807Z,0.00
2018-12-21T20:22:27.563Z,0.00
2018-12-21T20:24:56.970Z,0.00
2018-12-21T20:27:26.392Z,0.00
2018-12-21T20:29:55.785Z,0.00
2018-12-21T20:32:26.540Z,0.00
2018-12-21T20:34:56.144Z,0.10
2018-12-21T20:37:26.091Z,0.10
2018-12-21T20:39:55.604Z,0.00
2018-12-21T20:42:25.313Z,0.00
2018-12-21T20:44:54.951Z,0.10
2018-12-21T20:47:26.552Z,0.00
2018-12-21T20:49:56.053Z,0.00
2018-12-21T20:52:25.541Z,0.00
2018-12-21T20:54:57.119Z,0.10
2018-12-21T20:57:30.636Z,0.10
2018-12-21T21:00:01.027Z,0.10
2018-12-21T21:02:30.762Z,0.20
2018-12-21T21:05:04.693Z,0.20
2018-12-21T21:07:36.094Z,0.30
2018-12-21T21:10:08.353Z,0.30
2018-12-21T21:12:38.120Z,0.40
2018-12-21T21:15:10.242Z,0.30
2018-12-21T21:17:40.718Z,0.20
2018-12-21T21:20:12.606Z,0.20
2018-12-21T21:22:42.116Z,0.20
2018-12-21T21:25:11.662Z,0.20
2018-12-21T21:27:41.039Z,0.20
2018-12-21T21:30:13.795Z,0.10
2018-12-21T21:32:43.326Z,0.10
2018-12-21T21:35:12.874Z,0.20
2018-12-21T21:37:42.285Z,0.10
2018-12-21T21:40:17.698Z,0.20
2018-12-21T21:42:48.337Z,0.20
2018-12-21T21:45:18.058Z,0.10
2018-12-21T21:47:47.635Z,0.10
2018-12-21T21:50:17.185Z,0.10
2018-12-21T21:52:47.018Z,0.20
2018-12-21T21:55:16.476Z,0.10
2018-12-21T21:57:46.167Z,0.10
2018-12-21T22:00:17.023Z,0.10
2018-12-21T22:02:46.858Z,0.10
2018-12-21T22:05:16.865Z,0.10
2018-12-21T22:07:46.245Z,0.00
2018-12-21T22:10:15.714Z,0.00
2018-12-21T22:12:45.686Z,0.00
2018-12-21T22:15:15.464Z,0.00
2018-12-21T22:17:44.921Z,-0.10
2018-12-21T22:20:14.486Z,0.00
2018-12-21T22:22:43.954Z,0.10
2018-12-21T22:25:13.382Z,0.10
2018-12-21T22:27:47.886Z,0.10
2018-12-21T22:30:15.231Z,0.10
2018-12-21T22:32:44.708Z,0.10
2018-12-21T22:35:14.622Z,0.20
2018-12-21T22:37:44.018Z,0.20
2018-12-21T22:40:13.410Z,0.20
2018-12-21T22:42:42.865Z,0.20
2018-12-21T22:45:13.140Z,0.20
2018-12-21T22:47:43.083Z,0.10
2018-12-21T22:50:12.823Z,0.10
2018-12-21T22:52:43.963Z,0.10
2018-12-21T22:55:14.851Z,0.20
2018-12-21T22:57:46.287Z,0.10
2018-12-21T23:00:29.008Z,0.10
2018-12-21T23:03:00.306Z,0.20
2018-12-21T23:05:31.864Z,0.10
2018-12-21T23:08:01.984Z,0.10
2018-12-21T23:10:32.840Z,0.00
2018-12-21T23:13:05.439Z,0.00
2018-12-21T23:15:37.600Z,0.10
2018-12-21T23:18:09.662Z,0.10
2018-12-21T23:20:41.124Z,0.10
2018-12-21T23:23:12.656Z,0.20
2018-12-21T23:25:45.074Z,0.20
2018-12-21T23:28:16.290Z,0.20
2018-12-21T23:30:45.782Z,0.20
2018-12-21T23:33:17.091Z,0.20
2018-12-21T23:35:47.433Z,0.20
2018-12-21T23:38:17.617Z,0.20
2018-12-21T23:40:47.425Z,0.20
2018-12-21T23:43:17.285Z,0.20
2018-12-21T23:45:49.819Z,0.20
2018-12-21T23:48:20.671Z,0.20
2018-12-21T23:50:51.923Z,0.10
2018-12-21T23:53:21.931Z,0.20
2018-12-21T23:55:51.818Z,0.20
2018-12-21T23:58:21.944Z,0.20
